首页
METAR-TAF:

METAR-TAF

机场 :

麦克斯韦-甘特空军基地

蒙哥马利, 阿拉巴马州, 美国

纬度: 32-23N, 经度: 086-22W, 海拔: 51米

当前天气观测

该预报发布于5分钟前的05:56 UTC
静风
温度 24°C
湿度 89%
气压 1018 hPa
能見度: 16.1公里
天空无云

METAR: KMXF 270556Z AUTO 00000KT 10SM CLR 24/22 A3006 RMK AO2 SLP180 T02430223 10328 20238 403550212 58001

时间: 01:01 (06:01 UTC)


TAF: 丢失

超过4000个机场的气象观测和天气预报(METAR&TAF报告)。

可查询的气象台以黄色和红色小点在地图上表示。

将鼠标移到小点上方,可查看气象台名称。

然后点击查看天气观测和预报。

如需切换地图:点击带黑十字的绿色按钮放大地图;点击带横线的绿色按钮缩小地图;或者点击绿色箭头查看邻近地区的地图。


METAR-TAF: